createdAt,value
2022-09-13T00:00:54.183Z,13.13
2022-09-13T00:03:23.277Z,13.27
2022-09-13T00:05:51.537Z,13.23
2022-09-13T00:08:20.323Z,13.25
2022-09-13T00:10:48.771Z,13.23
2022-09-13T00:13:18.198Z,13.29
2022-09-13T00:15:47.188Z,13.24
2022-09-13T00:18:16.975Z,13.20
2022-09-13T00:20:48.299Z,13.18
2022-09-13T00:23:16.305Z,13.36
2022-09-13T00:25:44.184Z,13.46
2022-09-13T00:28:12.439Z,13.45
2022-09-13T00:30:40.537Z,13.56
2022-09-13T00:33:08.500Z,13.49
2022-09-13T00:35:37.758Z,13.55
2022-09-13T00:38:06.076Z,13.57
2022-09-13T00:40:38.881Z,13.51
2022-09-13T00:43:13.387Z,13.62
2022-09-13T00:45:41.701Z,13.70
2022-09-13T00:48:17.581Z,13.75
2022-09-13T00:50:49.987Z,13.71
2022-09-13T00:53:23.355Z,13.83
2022-09-13T00:55:55.597Z,13.91
2022-09-13T00:58:29.793Z,13.86
2022-09-13T01:01:00.066Z,13.81
2022-09-13T01:03:32.031Z,13.83
2022-09-13T01:06:07.009Z,13.77
2022-09-13T01:08:38.729Z,13.74
2022-09-13T01:11:11.939Z,13.72
2022-09-13T01:13:41.203Z,13.66
2022-09-13T01:16:09.448Z,13.62
2022-09-13T01:18:37.406Z,13.52
2022-09-13T01:21:52.181Z,13.68
2022-09-13T01:24:56.430Z,13.73
2022-09-13T01:27:39.925Z,13.74
2022-09-13T01:30:16.567Z,13.71
2022-09-13T01:33:20.479Z,13.77
2022-09-13T01:36:04.491Z,13.75
2022-09-13T01:38:48.894Z,13.83
2022-09-13T01:41:37.343Z,13.83
2022-09-13T01:44:19.069Z,13.85
2022-09-13T01:46:54.476Z,13.80
2022-09-13T01:49:30.730Z,13.67
2022-09-13T01:52:03.491Z,13.66
2022-09-13T01:54:36.448Z,13.63
2022-09-13T01:57:14.325Z,13.64
2022-09-13T01:59:50.978Z,13.80
2022-09-13T02:02:25.329Z,13.74
2022-09-13T02:04:57.518Z,13.71
2022-09-13T02:07:30.479Z,13.71
2022-09-13T02:10:03.606Z,13.66
2022-09-13T02:12:37.514Z,13.66
2022-09-13T02:15:11.730Z,13.67
2022-09-13T02:17:45.301Z,13.74
2022-09-13T02:20:18.396Z,13.72
2022-09-13T02:22:53.503Z,13.70
2022-09-13T02:25:24.439Z,13.75
2022-09-13T02:27:59.203Z,13.77
2022-09-13T02:30:28.703Z,13.79
2022-09-13T02:33:02.791Z,13.82
2022-09-13T02:35:36.232Z,13.72
2022-09-13T02:38:07.044Z,13.79
2022-09-13T02:40:41.195Z,13.84
2022-09-13T02:43:13.926Z,13.87
2022-09-13T02:45:47.762Z,13.76
2022-09-13T02:48:26.057Z,13.80
2022-09-13T02:51:04.120Z,13.74
2022-09-13T02:53:41.701Z,13.75
2022-09-13T02:56:18.849Z,13.80
2022-09-13T02:58:52.470Z,13.74
2022-09-13T03:01:21.623Z,13.69
2022-09-13T03:03:53.696Z,13.69
2022-09-13T03:06:26.156Z,13.66
2022-09-13T03:08:54.906Z,13.58
2022-09-13T03:11:36.055Z,13.69
2022-09-13T03:14:21.127Z,13.57
2022-09-13T03:17:06.437Z,13.60
2022-09-13T03:19:49.302Z,13.62
2022-09-13T03:22:36.113Z,13.51
2022-09-13T03:25:10.351Z,13.49
2022-09-13T03:27:47.118Z,13.37
2022-09-13T03:30:17.107Z,13.70
2022-09-13T03:32:51.961Z,13.68
2022-09-13T03:35:29.541Z,13.65
2022-09-13T03:38:03.171Z,13.70
2022-09-13T03:40:39.517Z,13.73
2022-09-13T03:43:13.709Z,13.77
2022-09-13T03:45:45.766Z,13.95
2022-09-13T03:48:16.322Z,14.09
2022-09-13T03:50:47.929Z,13.97
2022-09-13T03:53:20.328Z,13.98
2022-09-13T03:55:48.332Z,14.03
2022-09-13T03:58:18.326Z,13.98
2022-09-13T04:00:46.737Z,14.00
2022-09-13T04:03:16.013Z,13.98
2022-09-13T04:05:46.776Z,14.25
2022-09-13T04:08:14.838Z,14.32
2022-09-13T04:10:42.708Z,14.33
2022-09-13T04:13:10.655Z,14.15
2022-09-13T04:15:38.726Z,14.26
2022-09-13T04:18:06.595Z,14.31
2022-09-13T04:20:35.887Z,14.27
2022-09-13T04:23:05.226Z,14.29
2022-09-13T04:25:33.278Z,14.35
2022-09-13T04:28:04.228Z,14.30
2022-09-13T04:30:32.302Z,14.32
2022-09-13T04:33:00.226Z,14.36
2022-09-13T04:35:28.968Z,14.46
2022-09-13T04:37:58.175Z,14.39
2022-09-13T04:40:27.499Z,14.38
2022-09-13T04:42:55.388Z,14.39
2022-09-13T04:45:23.810Z,14.50
2022-09-13T04:47:53.862Z,14.54
2022-09-13T04:50:21.881Z,14.59
2022-09-13T04:52:50.223Z,14.69
2022-09-13T04:55:18.142Z,14.60
2022-09-13T04:57:47.628Z,14.72
2022-09-13T05:00:16.140Z,14.78
2022-09-13T05:02:44.647Z,14.80
2022-09-13T05:05:12.630Z,14.79
2022-09-13T05:07:40.852Z,14.98
2022-09-13T05:10:09.716Z,14.92
2022-09-13T05:12:40.415Z,14.95
2022-09-13T05:15:12.121Z,14.97
2022-09-13T05:17:40.018Z,15.04
2022-09-13T05:20:09.739Z,15.05
2022-09-13T05:22:37.720Z,15.13
2022-09-13T05:25:06.376Z,15.09
2022-09-13T05:27:34.330Z,15.12
2022-09-13T05:30:02.157Z,15.08
2022-09-13T05:32:32.324Z,15.21
2022-09-13T05:35:00.227Z,15.18
2022-09-13T05:37:28.251Z,15.23
2022-09-13T05:40:12.681Z,15.31
2022-09-13T05:42:40.830Z,15.27
2022-09-13T05:45:10.657Z,15.45
2022-09-13T05:47:39.874Z,15.30
2022-09-13T05:50:11.040Z,15.36
2022-09-13T05:52:41.695Z,15.36
2022-09-13T05:55:10.700Z,15.38
2022-09-13T05:57:38.603Z,15.44
2022-09-13T06:00:07.622Z,15.32
2022-09-13T06:02:36.127Z,15.36
2022-09-13T06:05:06.663Z,15.29
2022-09-13T06:07:35.325Z,15.30
2022-09-13T06:10:04.883Z,15.39
2022-09-13T06:12:32.716Z,15.39
2022-09-13T06:15:00.836Z,15.42
2022-09-13T06:17:28.800Z,15.44
2022-09-13T06:19:57.182Z,15.45
2022-09-13T06:22:33.425Z,15.52
2022-09-13T06:25:01.634Z,15.49
2022-09-13T06:27:30.816Z,15.49
2022-09-13T06:29:58.801Z,15.54
2022-09-13T06:32:26.797Z,15.46
2022-09-13T06:34:54.574Z,15.45
2022-09-13T06:37:22.333Z,15.46
2022-09-13T06:39:51.997Z,15.43
2022-09-13T06:42:20.011Z,15.38
2022-09-13T06:44:48.594Z,15.41
2022-09-13T06:47:16.501Z,15.48
2022-09-13T06:49:44.378Z,15.50
2022-09-13T06:52:12.344Z,15.54
2022-09-13T06:54:40.145Z,15.51
2022-09-13T06:57:09.667Z,15.52
2022-09-13T06:59:37.614Z,15.52
2022-09-13T07:02:05.618Z,15.62
2022-09-13T07:04:33.620Z,15.63
2022-09-13T07:07:01.559Z,15.65
2022-09-13T07:09:29.294Z,15.65
2022-09-13T07:11:57.748Z,15.58
2022-09-13T07:14:31.742Z,15.67
2022-09-13T07:17:00.565Z,15.60
2022-09-13T07:19:29.643Z,15.61
2022-09-13T07:21:58.447Z,15.46
2022-09-13T07:24:27.485Z,15.39
2022-09-13T07:26:55.493Z,15.30
2022-09-13T07:29:24.706Z,15.32
2022-09-13T07:31:58.724Z,15.26
2022-09-13T07:34:27.648Z,15.12
2022-09-13T07:36:55.816Z,15.04
2022-09-13T07:39:24.642Z,14.97
2022-09-13T07:41:53.821Z,14.95
2022-09-13T07:44:23.047Z,14.81
2022-09-13T07:46:51.047Z,14.83
2022-09-13T07:49:20.579Z,14.83
2022-09-13T07:51:53.005Z,14.81
2022-09-13T07:54:21.519Z,14.74
2022-09-13T07:56:51.747Z,14.72
2022-09-13T07:59:20.057Z,14.70
2022-09-13T08:01:49.814Z,14.53
2022-09-13T08:04:21.449Z,14.53
2022-09-13T08:06:50.022Z,14.60
2022-09-13T08:09:18.705Z,14.50
2022-09-13T08:11:48.694Z,14.55
2022-09-13T08:14:19.162Z,14.45
2022-09-13T08:16:47.532Z,14.55
2022-09-13T08:19:17.533Z,14.33
2022-09-13T08:21:50.069Z,14.24
2022-09-13T08:24:21.401Z,14.20
2022-09-13T08:26:50.079Z,14.20
2022-09-13T08:29:19.059Z,14.21
2022-09-13T08:31:47.263Z,14.24
2022-09-13T08:34:16.813Z,14.09
2022-09-13T08:36:46.135Z,14.28
2022-09-13T08:39:18.077Z,14.20
2022-09-13T08:42:04.748Z,14.21
2022-09-13T08:44:36.159Z,14.07
2022-09-13T08:47:21.705Z,14.14
2022-09-13T08:49:53.527Z,14.34
2022-09-13T08:52:30.631Z,14.31
2022-09-13T08:55:01.790Z,14.20
2022-09-13T08:57:37.788Z,14.15
2022-09-13T09:00:20.090Z,14.30
2022-09-13T09:02:59.732Z,14.19
2022-09-13T09:05:30.778Z,14.19
2022-09-13T09:08:03.291Z,14.23
2022-09-13T09:10:39.696Z,14.26
2022-09-13T09:13:13.803Z,14.33
2022-09-13T09:15:47.779Z,14.35
2022-09-13T09:18:21.945Z,14.18
2022-09-13T09:20:51.726Z,14.22
2022-09-13T09:23:24.917Z,14.13
2022-09-13T09:26:14.014Z,14.24
2022-09-13T09:28:43.339Z,14.11
2022-09-13T09:31:18.391Z,14.24
2022-09-13T09:34:08.499Z,14.29
2022-09-13T09:36:43.379Z,14.35
2022-09-13T09:39:14.361Z,14.21
2022-09-13T09:41:42.248Z,14.26
2022-09-13T09:44:22.567Z,14.39
2022-09-13T09:46:56.181Z,14.37
2022-09-13T09:49:50.162Z,14.39
2022-09-13T09:52:22.957Z,14.38
2022-09-13T09:54:52.181Z,14.34
2022-09-13T09:57:20.839Z,14.26
2022-09-13T09:59:50.123Z,14.39
2022-09-13T10:02:21.595Z,14.39
2022-09-13T10:04:58.174Z,14.41
2022-09-13T10:07:31.240Z,14.46
2022-09-13T10:10:03.352Z,14.45
2022-09-13T10:12:35.158Z,14.40
2022-09-13T10:15:17.831Z,14.62
2022-09-13T10:18:03.072Z,14.60
2022-09-13T10:20:31.655Z,14.61
2022-09-13T10:23:18.669Z,14.73
2022-09-13T10:25:59.918Z,14.92
2022-09-13T10:28:28.898Z,14.92
2022-09-13T10:31:01.233Z,14.94
2022-09-13T10:33:33.269Z,14.97
2022-09-13T10:36:04.701Z,14.76
2022-09-13T10:38:44.140Z,14.60
2022-09-13T10:41:24.521Z,14.59
2022-09-13T10:43:58.644Z,14.68
2022-09-13T10:46:31.723Z,14.68
2022-09-13T10:49:00.115Z,14.50
2022-09-13T10:51:37.099Z,14.55
2022-09-13T10:54:16.634Z,14.51
2022-09-13T10:56:45.543Z,14.73
2022-09-13T10:59:25.529Z,14.86
2022-09-13T11:02:30.306Z,14.97
2022-09-13T11:05:10.579Z,15.07
2022-09-13T11:08:31.543Z,15.22
2022-09-13T11:11:11.700Z,15.24
2022-09-13T11:13:54.805Z,15.03
2022-09-13T11:16:35.782Z,15.11
2022-09-13T11:19:19.142Z,15.04
2022-09-13T11:22:03.131Z,15.09
2022-09-13T11:24:51.071Z,14.99
2022-09-13T11:27:31.145Z,14.96
2022-09-13T11:30:09.775Z,15.02
2022-09-13T11:32:53.766Z,14.96
2022-09-13T11:35:37.356Z,15.19
2022-09-13T11:38:17.111Z,15.19
2022-09-13T11:40:57.388Z,15.36
2022-09-13T11:43:42.692Z,15.40
2022-09-13T11:46:20.402Z,15.39
2022-09-13T11:49:08.523Z,15.40
2022-09-13T11:51:54.182Z,15.43
2022-09-13T11:54:48.196Z,15.46
2022-09-13T11:57:22.795Z,15.56
2022-09-13T11:59:55.182Z,15.50
2022-09-13T12:02:28.998Z,15.46
2022-09-13T12:05:21.534Z,15.37
2022-09-13T12:07:56.655Z,15.41
2022-09-13T12:10:31.356Z,15.55
2022-09-13T12:13:16.236Z,15.64
2022-09-13T12:15:49.924Z,15.61
2022-09-13T12:18:23.695Z,15.59
2022-09-13T12:20:56.304Z,15.39
2022-09-13T12:23:40.370Z,15.39
2022-09-13T12:26:16.734Z,15.36
2022-09-13T12:28:52.977Z,15.47
2022-09-13T12:31:36.195Z,15.35
2022-09-13T12:37:50.252Z,15.07
2022-09-13T12:40:40.674Z,14.97
2022-09-13T12:43:37.682Z,14.84
2022-09-13T12:46:31.422Z,14.76
2022-09-13T12:49:33.473Z,14.71
2022-09-13T12:52:18.410Z,14.70
2022-09-13T12:55:46.172Z,14.74
2022-09-13T12:58:40.847Z,14.76
2022-09-13T13:01:26.379Z,14.68
2022-09-13T13:04:15.860Z,14.71
2022-09-13T13:06:56.443Z,14.79
2022-09-13T13:09:34.806Z,14.87
2022-09-13T13:12:03.625Z,14.81
2022-09-13T13:14:53.811Z,14.88
2022-09-13T13:18:07.516Z,14.68
2022-09-13T13:21:33.520Z,14.84
2022-09-13T13:24:39.501Z,14.77
2022-09-13T13:27:48.462Z,14.77
2022-09-13T13:31:44.298Z,14.69
2022-09-13T13:34:08.734Z,14.49
2022-09-13T13:37:52.291Z,14.45
2022-09-13T13:40:30.622Z,14.59
2022-09-13T13:43:37.734Z,14.33
2022-09-13T13:46:29.353Z,14.52
2022-09-13T13:49:33.037Z,14.40
2022-09-13T13:52:46.258Z,14.47
2022-09-13T13:55:41.209Z,14.53
2022-09-13T13:58:25.925Z,14.49
2022-09-13T14:00:56.150Z,14.62
2022-09-13T14:03:36.408Z,14.67
2022-09-13T14:06:14.939Z,14.77
2022-09-13T14:08:58.397Z,14.77
2022-09-13T14:11:41.914Z,14.69
2022-09-13T14:14:27.924Z,14.80
2022-09-13T14:17:16.489Z,14.77
2022-09-13T14:19:49.469Z,14.87
2022-09-13T14:22:20.150Z,14.74
2022-09-13T14:24:49.854Z,15.08
2022-09-13T14:27:21.347Z,15.16
2022-09-13T14:29:52.181Z,15.13
2022-09-13T14:32:23.134Z,15.15
2022-09-13T14:34:59.427Z,15.35
2022-09-13T14:37:31.449Z,16.34
2022-09-13T14:40:02.292Z,17.05
2022-09-13T14:42:40.704Z,17.17
2022-09-13T14:45:15.015Z,17.11
2022-09-13T14:47:51.824Z,17.00
2022-09-13T14:50:26.303Z,16.80
2022-09-13T14:52:58.180Z,16.59
2022-09-13T14:55:31.493Z,16.51
2022-09-13T14:58:04.423Z,16.49
2022-09-13T15:00:35.938Z,17.29
2022-09-13T15:03:13.044Z,17.82
2022-09-13T15:05:42.425Z,17.89
2022-09-13T15:08:47.781Z,17.91
2022-09-13T15:11:27.571Z,17.40
2022-09-13T15:14:03.519Z,16.96
2022-09-13T15:16:33.216Z,16.65
2022-09-13T15:19:18.120Z,16.29
2022-09-13T15:21:47.560Z,15.93
2022-09-13T15:24:22.802Z,15.77
2022-09-13T15:27:01.962Z,15.61
2022-09-13T15:29:34.661Z,15.61
2022-09-13T15:32:03.748Z,15.73
2022-09-13T15:34:31.640Z,15.76
2022-09-13T15:37:14.867Z,15.79
2022-09-13T15:39:48.476Z,15.87
2022-09-13T15:42:17.946Z,15.80
2022-09-13T15:44:45.952Z,15.76
2022-09-13T15:47:25.449Z,15.81
2022-09-13T15:49:56.327Z,15.60
2022-09-13T15:52:25.641Z,15.62
2022-09-13T15:54:53.506Z,15.58
2022-09-13T15:57:24.490Z,15.53
2022-09-13T15:59:54.350Z,15.42
2022-09-13T16:02:25.643Z,15.26
2022-09-13T16:04:56.428Z,15.05
2022-09-13T16:07:47.718Z,15.02
2022-09-13T16:10:20.437Z,14.73
2022-09-13T16:12:51.784Z,14.85
2022-09-13T16:15:20.032Z,14.82
2022-09-13T16:17:47.935Z,14.82
2022-09-13T16:20:17.431Z,14.73
2022-09-13T16:22:46.748Z,14.63
2022-09-13T16:25:15.916Z,14.34
2022-09-13T16:27:45.026Z,14.17
2022-09-13T16:30:14.933Z,14.09
2022-09-13T16:32:42.912Z,14.02
2022-09-13T16:35:12.390Z,13.89
2022-09-13T16:37:41.163Z,13.78
2022-09-13T16:40:12.465Z,13.71
2022-09-13T16:43:00.789Z,13.49
2022-09-13T16:45:28.789Z,13.43
2022-09-13T16:47:56.818Z,13.59
2022-09-13T16:50:25.230Z,13.43
2022-09-13T16:52:53.041Z,13.46
2022-09-13T16:55:22.373Z,13.45
2022-09-13T16:57:52.522Z,13.46
2022-09-13T17:00:21.118Z,13.30
2022-09-13T17:02:49.259Z,13.28
2022-09-13T17:05:17.367Z,13.18
2022-09-13T17:07:45.508Z,12.89
2022-09-13T17:10:13.736Z,12.98
2022-09-13T17:12:43.416Z,12.94
2022-09-13T17:15:11.978Z,12.83
2022-09-13T17:17:40.289Z,12.85
2022-09-13T17:20:12.009Z,12.73
2022-09-13T17:22:40.036Z,12.62
2022-09-13T17:25:09.132Z,12.63
2022-09-13T17:27:37.401Z,12.57
2022-09-13T17:30:11.420Z,12.61
2022-09-13T17:32:39.362Z,12.59
2022-09-13T17:35:08.730Z,12.50
2022-09-13T17:37:37.111Z,12.57
2022-09-13T17:40:06.034Z,12.44
2022-09-13T17:42:33.961Z,12.60
2022-09-13T17:45:01.950Z,12.60
2022-09-13T17:47:31.150Z,12.67
2022-09-13T17:49:59.145Z,12.66
2022-09-13T17:52:27.722Z,12.59
2022-09-13T17:54:57.609Z,12.57
2022-09-13T17:57:25.619Z,12.68
2022-09-13T17:59:54.877Z,12.73
2022-09-13T18:02:23.322Z,12.76
2022-09-13T18:04:53.193Z,12.83
2022-09-13T18:07:21.198Z,12.83
2022-09-13T18:09:49.134Z,12.83
2022-09-13T18:12:17.219Z,12.84
2022-09-13T18:14:45.144Z,12.80
2022-09-13T18:17:13.921Z,12.77
2022-09-13T18:19:46.634Z,12.67
2022-09-13T18:22:16.729Z,12.61
2022-09-13T18:24:44.952Z,12.51
2022-09-13T18:27:13.377Z,12.45
2022-09-13T18:29:41.262Z,12.36
2022-09-13T18:32:09.418Z,12.29
2022-09-13T18:34:37.309Z,12.21
2022-09-13T18:37:05.705Z,12.07
2022-09-13T18:39:39.233Z,12.03
2022-09-13T18:42:12.531Z,11.94
2022-09-13T18:44:40.781Z,11.99
2022-09-13T18:47:13.002Z,11.95
2022-09-13T18:49:43.961Z,11.91
2022-09-13T18:52:17.262Z,11.75
2022-09-13T18:54:53.510Z,11.88
2022-09-13T18:57:24.088Z,11.89
2022-09-13T18:59:52.667Z,11.70
2022-09-13T19:02:23.798Z,11.84
2022-09-13T19:04:56.613Z,11.99
2022-09-13T19:07:24.654Z,11.98
2022-09-13T19:10:00.297Z,11.99
2022-09-13T19:12:28.553Z,12.00
2022-09-13T19:14:56.391Z,11.90
2022-09-13T19:17:25.100Z,12.04
2022-09-13T19:19:53.142Z,12.06
2022-09-13T19:22:21.005Z,12.08
2022-09-13T19:24:51.762Z,12.09
2022-09-13T19:27:24.510Z,12.22
2022-09-13T19:29:53.917Z,12.20
2022-09-13T19:32:26.466Z,12.29
2022-09-13T19:34:54.726Z,12.39
2022-09-13T19:37:22.676Z,12.49
2022-09-13T19:39:51.938Z,12.64
2022-09-13T19:42:23.862Z,12.76
2022-09-13T19:44:53.869Z,12.67
2022-09-13T19:50:12.999Z,12.73
2022-09-13T19:52:46.368Z,12.89
2022-09-13T19:55:14.601Z,12.91
2022-09-13T19:57:46.458Z,12.88
2022-09-13T20:00:15.520Z,12.68
2022-09-13T20:02:43.691Z,12.66
2022-09-13T20:05:11.559Z,12.85
2022-09-13T20:07:39.574Z,12.82
2022-09-13T20:10:07.785Z,12.92
2022-09-13T20:12:37.749Z,13.05
2022-09-13T20:15:08.671Z,13.03
2022-09-13T20:17:38.010Z,12.98
2022-09-13T20:20:06.398Z,13.03
2022-09-13T20:22:34.322Z,13.03
2022-09-13T20:25:03.180Z,12.74
2022-09-13T20:27:32.669Z,12.73
2022-09-13T20:30:01.774Z,12.70
2022-09-13T20:32:31.227Z,12.69
2022-09-13T20:34:59.140Z,12.55
2022-09-13T20:37:27.657Z,12.63
2022-09-13T20:39:55.659Z,12.51
2022-09-13T20:42:24.515Z,12.39
2022-09-13T20:44:52.612Z,12.49
2022-09-13T20:47:20.558Z,12.38
2022-09-13T20:49:49.864Z,12.30
2022-09-13T20:52:17.903Z,12.43
2022-09-13T20:54:48.507Z,12.27
2022-09-13T20:57:16.427Z,12.30
2022-09-13T20:59:44.788Z,12.26
2022-09-13T21:02:12.756Z,12.18
2022-09-13T21:04:40.683Z,12.17
2022-09-13T21:07:30.435Z,12.06
2022-09-13T21:10:01.034Z,11.98
2022-09-13T21:12:29.574Z,11.93
2022-09-13T21:14:57.508Z,11.86
2022-09-13T21:17:25.820Z,11.63
2022-09-13T21:19:53.802Z,11.66
2022-09-13T21:22:25.046Z,11.44
2022-09-13T21:24:53.190Z,11.52
2022-09-13T21:27:21.289Z,11.33
2022-09-13T21:29:49.291Z,11.34
2022-09-13T21:32:17.170Z,11.21
2022-09-13T21:34:46.469Z,11.14
2022-09-13T21:37:14.360Z,11.02
2022-09-13T21:39:43.648Z,11.07
2022-09-13T21:42:11.812Z,11.04
2022-09-13T21:44:39.780Z,11.00
2022-09-13T21:47:07.772Z,11.05
2022-09-13T21:49:35.632Z,11.03
2022-09-13T21:52:04.073Z,10.95
2022-09-13T21:54:31.891Z,10.98
2022-09-13T21:57:01.375Z,11.05
2022-09-13T21:59:29.229Z,11.04
2022-09-13T22:01:58.208Z,11.07
2022-09-13T22:04:27.675Z,11.07
2022-09-13T22:06:56.228Z,11.08
2022-09-13T22:09:27.056Z,11.10
2022-09-13T22:11:55.936Z,11.16
2022-09-13T22:14:25.288Z,11.19
2022-09-13T22:16:53.624Z,11.22
2022-09-13T22:19:23.767Z,11.18
2022-09-13T22:21:55.794Z,11.19
2022-09-13T22:24:25.594Z,11.22
2022-09-13T22:26:56.650Z,11.20
2022-09-13T22:29:26.421Z,11.24
2022-09-13T22:31:54.802Z,11.28
2022-09-13T22:34:25.435Z,11.29
2022-09-13T22:36:55.506Z,11.29
2022-09-13T22:39:23.662Z,11.27
2022-09-13T22:41:51.856Z,11.28
2022-09-13T22:44:19.764Z,11.32
2022-09-13T22:46:49.102Z,11.40
2022-09-13T22:49:18.832Z,11.41
2022-09-13T22:51:47.862Z,11.44
2022-09-13T22:54:17.572Z,11.48
2022-09-13T22:56:45.762Z,11.46
2022-09-13T22:59:15.700Z,11.59
2022-09-13T23:01:43.898Z,11.53
2022-09-13T23:04:13.944Z,11.61
2022-09-13T23:06:43.960Z,11.65
2022-09-13T23:09:15.699Z,11.67
2022-09-13T23:11:43.833Z,11.58
2022-09-13T23:14:13.473Z,11.81
2022-09-13T23:16:43.536Z,11.78
2022-09-13T23:19:14.293Z,11.85
2022-09-13T23:21:42.629Z,11.92
2022-09-13T23:24:14.111Z,11.92
2022-09-13T23:26:42.467Z,11.93
2022-09-13T23:29:13.758Z,12.01
2022-09-13T23:31:42.626Z,11.95
2022-09-13T23:34:12.362Z,12.06
2022-09-13T23:36:44.252Z,12.06
2022-09-13T23:39:17.672Z,11.98
2022-09-13T23:41:47.214Z,11.90
2022-09-13T23:44:15.278Z,11.98
2022-09-13T23:46:43.586Z,12.05
2022-09-13T23:49:12.874Z,11.85
2022-09-13T23:51:42.418Z,11.97
2022-09-13T23:54:13.938Z,11.91
2022-09-13T23:56:42.491Z,11.95
2022-09-13T23:59:12.664Z,12.02
